Time;durP1;ratioP1;P1;durP2;ratioP2;P2;SDS_P1;SDS_P2;PMS_P1;PMS_P2;Temp;Humidity;BMP_temperature;BMP_pressure;BME280_temperature;BME280_humidity;BME280_pressure;Samples;Min_cycle;Max_cycle;Signal;HPM_P1;HPM_P2
2022/04/07 05:02:33;;;;;;;1999.90;999.90;;;;;;;;;;5254051;22;20241;-68
2022/04/07 05:05:18;;;;;;;1999.90;999.90;;;;;;;;;;5034348;28;20202;-68
2022/04/07 05:08:03;;;;;;;1999.90;999.90;;;;;;;;;;5033780;28;20304;-68
2022/04/07 05:10:48;;;;;;;1999.90;999.90;;;;;;;;;;5034442;28;20225;-68
2022/04/07 05:13:33;;;;;;;1999.90;999.90;;;;;;;;;;5034088;28;20283;-67
2022/04/07 05:16:18;;;;;;;1999.90;999.90;;;;;;;;;;5034405;28;20209;-68
2022/04/07 05:19:04;;;;;;;1999.90;999.90;;;;;;;;;;5016507;28;20230;-66
2022/04/07 05:21:50;;;;;;;1999.90;999.90;;;;;;;;;;5021205;28;20225;-67
2022/04/07 05:24:35;;;;;;;1999.90;999.90;;;;;;;;;;5033998;28;20201;-68
2022/04/07 05:27:20;;;;;;;1999.90;999.90;;;;;;;;;;5033908;28;20206;-67
2022/04/07 05:30:05;;;;;;;1999.90;999.90;;;;;;;;;;5033820;28;20572;-67
2022/04/07 05:32:50;;;;;;;1999.90;999.90;;;;;;;;;;5033936;28;20349;-68
2022/04/07 05:35:36;;;;;;;1999.90;999.90;;;;;;;;;;5034006;28;20205;-68
2022/04/07 05:38:21;;;;;;;1999.90;999.90;;;;;;;;;;5032989;28;20233;-68
2022/04/07 05:41:06;;;;;;;1999.90;999.90;;;;;;;;;;5033814;28;20759;-68
2022/04/07 05:43:51;;;;;;;1999.90;999.90;;;;;;;;;;5033889;28;20209;-67
2022/04/07 05:46:36;;;;;;;1999.90;999.90;;;;;;;;;;5032554;28;20209;-67
2022/04/07 05:49:21;;;;;;;1999.90;999.90;;;;;;;;;;5030475;28;20285;-67
2022/04/07 05:52:08;;;;;;;1999.90;999.90;;;;;;;;;;5033567;28;20601;-67
2022/04/07 05:54:53;;;;;;;1999.90;999.90;;;;;;;;;;5033619;28;20334;-67
2022/04/07 05:57:38;;;;;;;1999.90;999.90;;;;;;;;;;5033186;28;20210;-67
2022/04/07 06:00:23;;;;;;;1999.90;999.90;;;;;;;;;;5033235;28;20299;-66
2022/04/07 06:03:08;;;;;;;1999.90;999.90;;;;;;;;;;5033464;28;20616;-68
2022/04/07 06:05:53;;;;;;;1999.90;999.90;;;;;;;;;;5033189;28;20205;-68
2022/04/07 06:08:40;;;;;;;1999.90;999.90;;;;;;;;;;5032648;28;20209;-68
2022/04/07 06:11:24;;;;;;;1999.90;999.90;;;;;;;;;;5021709;28;20234;-66
2022/04/07 06:14:09;;;;;;;1999.90;999.90;;;;;;;;;;5012801;28;20226;-68
2022/04/07 06:16:54;;;;;;;1999.90;999.90;;;;;;;;;;5022190;28;20479;-68
2022/04/07 06:19:39;;;;;;;1999.90;999.90;;;;;;;;;;5025477;28;20212;-68
2022/04/07 06:22:24;;;;;;;1999.90;999.90;;;;;;;;;;5031547;28;20224;-67
2022/04/07 06:25:10;;;;;;;1999.90;999.90;;;;;;;;;;5028727;28;20322;-67
2022/04/07 06:27:56;;;;;;;1999.90;999.90;;;;;;;;;;5025162;28;20209;-66
2022/04/07 06:30:41;;;;;;;1999.90;999.90;;;;;;;;;;5017723;28;20238;-67
2022/04/07 06:33:26;;;;;;;1999.90;999.90;;;;;;;;;;5016601;28;20579;-69
2022/04/07 06:36:11;;;;;;;1999.90;999.90;;;;;;;;;;5032887;28;20792;-67
2022/04/07 06:38:56;;;;;;;1999.90;999.90;;;;;;;;;;5031229;28;20280;-67
2022/04/07 06:41:42;;;;;;;1999.90;999.90;;;;;;;;;;5032541;28;20230;-67
2022/04/07 06:44:27;;;;;;;1999.90;999.90;;;;;;;;;;5027286;28;20202;-66
2022/04/07 06:47:12;;;;;;;1999.90;999.90;;;;;;;;;;5031896;28;20202;-69
2022/04/07 06:49:57;;;;;;;1999.90;999.90;;;;;;;;;;5020747;28;20270;-68
2022/04/07 06:52:42;;;;;;;1999.90;999.90;;;;;;;;;;5032337;28;20222;-67
2022/04/07 06:55:28;;;;;;;1999.90;999.90;;;;;;;;;;5027391;28;20206;-66
2022/04/07 06:58:14;;;;;;;1999.90;999.90;;;;;;;;;;5011847;28;20207;-67
2022/04/07 07:00:59;;;;;;;1999.90;999.90;;;;;;;;;;5012569;28;20236;-66
2022/04/07 07:03:44;;;;;;;1999.90;999.90;;;;;;;;;;5012678;28;20199;-66
2022/04/07 07:06:29;;;;;;;1999.90;999.90;;;;;;;;;;5012353;28;20694;-66
2022/04/07 07:09:14;;;;;;;1999.90;999.90;;;;;;;;;;5029967;28;20317;-64
2022/04/07 07:11:59;;;;;;;1999.90;999.90;;;;;;;;;;5032159;28;20728;-66
2022/04/07 07:14:47;;;;;;;1999.90;999.90;;;;;;;;;;5032240;28;20285;-65
2022/04/07 07:17:33;;;;;;;1999.90;999.90;;;;;;;;;;5031392;28;20223;-67
2022/04/07 07:20:19;;;;;;;1999.90;999.90;;;;;;;;;;5030146;28;20501;-68
2022/04/07 07:23:04;;;;;;;1999.90;999.90;;;;;;;;;;5032146;28;20207;-68
2022/04/07 07:25:49;;;;;;;1999.90;999.90;;;;;;;;;;5032041;28;20275;-65
2022/04/07 07:28:34;;;;;;;1999.90;999.90;;;;;;;;;;5031621;28;20277;-68
2022/04/07 07:31:20;;;;;;;1999.90;999.90;;;;;;;;;;5031884;28;20719;-68
2022/04/07 07:34:05;;;;;;;1999.90;999.90;;;;;;;;;;5023135;28;20271;-68
2022/04/07 07:36:50;;;;;;;1999.90;999.90;;;;;;;;;;5012570;28;20228;-70
2022/04/07 07:39:35;;;;;;;1999.90;999.90;;;;;;;;;;5012253;28;20202;-68
2022/04/07 07:42:20;;;;;;;1999.90;999.90;;;;;;;;;;5013350;28;20232;-69
2022/04/07 07:45:05;;;;;;;1999.90;999.90;;;;;;;;;;5022101;28;20279;-69
2022/04/07 07:47:53;;;;;;;1999.90;999.90;;;;;;;;;;5015950;28;20611;-71
2022/04/07 07:50:40;;;;;;;1999.90;999.90;;;;;;;;;;5019244;28;20562;-67
2022/04/07 07:53:25;;;;;;;1999.90;999.90;;;;;;;;;;5024527;28;20267;-71
2022/04/07 07:56:10;;;;;;;1999.90;999.90;;;;;;;;;;5010948;28;20216;-67
2022/04/07 07:58:55;;;;;;;1999.90;999.90;;;;;;;;;;5026123;28;20272;-69
2022/04/07 08:01:43;;;;;;;1999.90;999.90;;;;;;;;;;5028146;28;20240;-67
2022/04/07 08:04:29;;;;;;;1999.90;999.90;;;;;;;;;;5027927;28;20212;-69
2022/04/07 08:07:14;;;;;;;1999.90;999.90;;;;;;;;;;5013803;28;20274;-68
2022/04/07 08:10:01;;;;;;;1999.90;999.90;;;;;;;;;;5014802;28;20211;-69
2022/04/07 08:12:46;;;;;;;1999.90;999.90;;;;;;;;;;5017619;28;20609;-68
2022/04/07 08:15:31;;;;;;;1999.90;999.90;;;;;;;;;;5020767;28;20282;-72
2022/04/07 08:18:16;;;;;;;1999.90;999.90;;;;;;;;;;5025779;28;20305;-68
2022/04/07 08:21:03;;;;;;;1999.90;999.90;;;;;;;;;;5026062;28;20235;-70
2022/04/07 08:23:48;;;;;;;1999.90;999.90;;;;;;;;;;5031711;28;20207;-70
2022/04/07 08:26:33;;;;;;;1999.90;999.90;;;;;;;;;;5021812;28;20204;-69
2022/04/07 08:29:18;;;;;;;1999.90;999.90;;;;;;;;;;5030188;28;20215;-70
2022/04/07 08:32:03;;;;;;;1999.90;999.90;;;;;;;;;;5014215;28;20732;-68
2022/04/07 08:34:48;;;;;;;1999.90;999.90;;;;;;;;;;5018200;28;20726;-70
2022/04/07 08:37:36;;;;;;;1999.90;999.90;;;;;;;;;;5030025;28;20702;-69
2022/04/07 08:40:21;;;;;;;1999.90;999.90;;;;;;;;;;5013927;28;20206;-70
2022/04/07 08:43:08;;;;;;;1999.90;999.90;;;;;;;;;;5019002;28;20297;-75
2022/04/07 08:45:53;;;;;;;1999.90;999.90;;;;;;;;;;5029040;28;20291;-71
2022/04/07 08:48:38;;;;;;;1999.90;999.90;;;;;;;;;;5015859;28;20691;-69
2022/04/07 08:51:26;;;;;;;1999.90;999.90;;;;;;;;;;5018648;28;20280;-73
2022/04/07 08:54:12;;;;;;;1999.90;999.90;;;;;;;;;;5012670;28;20444;-68
2022/04/07 08:56:57;;;;;;;1999.90;999.90;;;;;;;;;;5030522;28;20205;-71
2022/04/07 08:59:42;;;;;;;1999.90;999.90;;;;;;;;;;5030385;28;20209;-69
2022/04/07 09:02:28;;;;;;;1999.90;999.90;;;;;;;;;;5031376;28;20799;-69
2022/04/07 09:05:13;;;;;;;1999.90;999.90;;;;;;;;;;5021393;28;20686;-70
2022/04/07 09:07:58;;;;;;;1999.90;999.90;;;;;;;;;;5024006;28;20229;-70
2022/04/07 09:10:44;;;;;;;1999.90;999.90;;;;;;;;;;5019406;28;20353;-71
2022/04/07 09:13:30;;;;;;;1999.90;999.90;;;;;;;;;;5021179;28;20383;-69
2022/04/07 09:16:16;;;;;;;1999.90;999.90;;;;;;;;;;5019989;28;20213;-73
2022/04/07 09:19:01;;;;;;;1999.90;999.90;;;;;;;;;;5019878;28;20214;-69
2022/04/07 09:21:46;;;;;;;1999.90;999.90;;;;;;;;;;5027297;28;20225;-69
2022/04/07 09:24:33;;;;;;;1999.90;999.90;;;;;;;;;;5024783;28;20202;-69
2022/04/07 09:27:19;;;;;;;1999.90;999.90;;;;;;;;;;5018263;28;20202;-69
2022/04/07 09:30:08;;;;;;;1999.90;999.90;;;;;;;;;;5016619;28;20206;-70
2022/04/07 09:32:53;;;;;;;1999.90;999.90;;;;;;;;;;5028841;28;20209;-69
2022/04/07 09:35:57;;;;;;;1999.90;999.90;;;;;;;;;;5023425;28;20881;-67
2022/04/07 09:38:42;;;;;;;1999.90;999.90;;;;;;;;;;5019362;28;20206;-67
2022/04/07 09:41:28;;;;;;;1999.90;999.90;;;;;;;;;;5027868;28;20799;-67
2022/04/07 09:44:19;;;;;;;1999.90;999.90;;;;;;;;;;5024673;28;20682;-69
2022/04/07 09:47:10;;;;;;;1999.90;999.90;;;;;;;;;;5021615;28;20190;-68
2022/04/07 09:49:55;;;;;;;1999.90;999.90;;;;;;;;;;5018903;28;20330;-68
2022/04/07 09:52:54;;;;;;;1999.90;999.90;;;;;;;;;;5022810;28;20594;-68
2022/04/07 09:55:41;;;;;;;1999.90;999.90;;;;;;;;;;5018253;28;20210;-72
2022/04/07 09:58:27;;;;;;;1999.90;999.90;;;;;;;;;;5019673;28;20219;-71
2022/04/07 10:01:13;;;;;;;1999.90;999.90;;;;;;;;;;5019993;28;20297;-69
2022/04/07 10:03:59;;;;;;;1999.90;999.90;;;;;;;;;;5015996;28;20712;-69
2022/04/07 10:06:45;;;;;;;1999.90;999.90;;;;;;;;;;5024105;28;20244;-73
2022/04/07 10:09:30;;;;;;;1999.90;999.90;;;;;;;;;;5021860;28;20600;-74
2022/04/07 10:12:16;;;;;;;1999.90;999.90;;;;;;;;;;5018141;28;20707;-72
2022/04/07 10:15:03;;;;;;;1999.90;999.90;;;;;;;;;;5018140;28;20229;-71
2022/04/07 10:17:49;;;;;;;1999.90;999.90;;;;;;;;;;5014116;28;20206;-72
2022/04/07 10:20:36;;;;;;;1999.90;999.90;;;;;;;;;;5012310;28;20218;-72
2022/04/07 10:23:29;;;;;;;1999.90;999.90;;;;;;;;;;5018716;28;20301;-72
2022/04/07 10:26:16;;;;;;;1999.90;999.90;;;;;;;;;;5022991;28;20637;-72
2022/04/07 10:29:01;;;;;;;1999.90;999.90;;;;;;;;;;5015953;28;20768;-71
2022/04/07 10:32:00;;;;;;;1999.90;999.90;;;;;;;;;;5017779;28;20281;-73
2022/04/07 10:34:57;;;;;;;1999.90;999.90;;;;;;;;;;5015752;28;20231;-72
2022/04/07 10:37:43;;;;;;;1999.90;999.90;;;;;;;;;;5022668;28;20209;-72
2022/04/07 10:40:39;;;;;;;1999.90;999.90;;;;;;;;;;5023176;28;20296;-74
2022/04/07 10:43:25;;;;;;;1999.90;999.90;;;;;;;;;;5027849;28;20317;-73
2022/04/07 10:46:11;;;;;;;1999.90;999.90;;;;;;;;;;5023664;28;20214;-72
2022/04/07 10:49:00;;;;;;;1999.90;999.90;;;;;;;;;;5031679;28;20210;-72
2022/04/07 10:51:50;;;;;;;1999.90;999.90;;;;;;;;;;5027361;28;20358;-72
2022/04/07 10:54:55;;;;;;;1999.90;999.90;;;;;;;;;;5022335;28;20774;-73
2022/04/07 10:57:55;;;;;;;1999.90;999.90;;;;;;;;;;5032010;28;20248;-73
2022/04/07 11:00:40;;;;;;;1999.90;999.90;;;;;;;;;;5011770;28;20404;-73
2022/04/07 11:03:25;;;;;;;1999.90;999.90;;;;;;;;;;5024862;28;20257;-72
2022/04/07 11:06:11;;;;;;;1999.90;999.90;;;;;;;;;;5032273;28;20206;-73
2022/04/07 11:09:11;;;;;;;1999.90;999.90;;;;;;;;;;5031533;28;20351;-74
2022/04/07 11:12:08;;;;;;;1999.90;999.90;;;;;;;;;;5032136;28;20226;-72
2022/04/07 11:14:54;;;;;;;1999.90;999.90;;;;;;;;;;5031899;28;20280;-73
2022/04/07 11:17:48;;;;;;;1999.90;999.90;;;;;;;;;;5031593;28;20209;-73
2022/04/07 11:20:33;;;;;;;1999.90;999.90;;;;;;;;;;5031899;28;20210;-72
2022/04/07 11:23:38;;;;;;;1999.90;999.90;;;;;;;;;;5031704;28;20210;-71
2022/04/07 11:26:25;;;;;;;1999.90;999.90;;;;;;;;;;5032019;28;20206;-71
2022/04/07 11:29:13;;;;;;;1999.90;999.90;;;;;;;;;;5031105;28;20236;-72
2022/04/07 11:32:06;;;;;;;1999.90;999.90;;;;;;;;;;5030904;28;20352;-73
2022/04/07 11:34:55;;;;;;;1999.90;999.90;;;;;;;;;;5021365;28;20771;-71
2022/04/07 11:37:41;;;;;;;1999.90;999.90;;;;;;;;;;5031458;28;20670;-73
2022/04/07 11:40:26;;;;;;;1999.90;999.90;;;;;;;;;;5012021;28;20210;-72
2022/04/07 11:43:11;;;;;;;1999.90;999.90;;;;;;;;;;5012092;28;20221;-71
2022/04/07 11:45:58;;;;;;;1999.90;999.90;;;;;;;;;;5016253;28;20198;-72
2022/04/07 11:48:42;;;;;;;1999.90;999.90;;;;;;;;;;5030562;28;20209;-72
2022/04/07 11:51:28;;;;;;;1999.90;999.90;;;;;;;;;;5022864;28;20840;-73
2022/04/07 11:54:15;;;;;;;1999.90;999.90;;;;;;;;;;5023900;28;20250;-72
2022/04/07 11:57:01;;;;;;;1999.90;999.90;;;;;;;;;;5035459;28;20695;-72
2022/04/07 11:59:46;;;;;;;1999.90;999.90;;;;;;;;;;5035055;28;20206;-74
2022/04/07 12:02:32;;;;;;;1999.90;999.90;;;;;;;;;;5035406;28;20237;-72
2022/04/07 12:05:17;;;;;;;1999.90;999.90;;;;;;;;;;5035606;28;20245;-72
2022/04/07 12:08:05;;;;;;;1999.90;999.90;;;;;;;;;;5034614;28;21011;-72
2022/04/07 12:10:50;;;;;;;1999.90;999.90;;;;;;;;;;5035429;28;20218;-70
2022/04/07 12:13:35;;;;;;;1999.90;999.90;;;;;;;;;;5035397;28;20205;-70
2022/04/07 12:16:22;;;;;;;1999.90;999.90;;;;;;;;;;5023146;28;20261;-71
2022/04/07 12:19:09;;;;;;;1999.90;999.90;;;;;;;;;;5031150;28;20206;-73
2022/04/07 12:21:55;;;;;;;1999.90;999.90;;;;;;;;;;5021839;28;20223;-71
2022/04/07 12:24:55;;;;;;;1999.90;999.90;;;;;;;;;;5018956;28;20222;-72
2022/04/07 12:27:41;;;;;;;1999.90;999.90;;;;;;;;;;5034544;28;20209;-73
2022/04/07 12:30:41;;;;;;;1999.90;999.90;;;;;;;;;;5033736;28;20410;-73
2022/04/07 12:33:39;;;;;;;1999.90;999.90;;;;;;;;;;5035083;28;20209;-73
2022/04/07 12:36:37;;;;;;;1999.90;999.90;;;;;;;;;;5035049;28;20285;-71
2022/04/07 12:39:22;;;;;;;1999.90;999.90;;;;;;;;;;5034185;28;20212;-71
2022/04/07 12:42:09;;;;;;;1999.90;999.90;;;;;;;;;;5034895;28;20737;-73
2022/04/07 12:45:04;;;;;;;1999.90;999.90;;;;;;;;;;5034871;28;20220;-72
2022/04/07 12:48:01;;;;;;;1999.90;999.90;;;;;;;;;;5033769;28;20201;-72
2022/04/07 12:50:46;;;;;;;1999.90;999.90;;;;;;;;;;5034763;28;20269;-72
2022/04/07 12:53:34;;;;;;;1999.90;999.90;;;;;;;;;;5034302;28;20285;-70
2022/04/07 12:56:20;;;;;;;1999.90;999.90;;;;;;;;;;5033682;28;20207;-71
2022/04/07 12:59:05;;;;;;;1999.90;999.90;;;;;;;;;;5033822;28;20232;-71
2022/04/07 13:01:55;;;;;;;1999.90;999.90;;;;;;;;;;5034254;28;20234;-71
2022/04/07 13:04:47;;;;;;;1999.90;999.90;;;;;;;;;;5033974;28;20681;-71
2022/04/07 13:07:33;;;;;;;1999.90;999.90;;;;;;;;;;5025126;28;20210;-72
2022/04/07 13:10:22;;;;;;;1999.90;999.90;;;;;;;;;;5023728;28;20229;-72
2022/04/07 13:13:07;;;;;;;1999.90;999.90;;;;;;;;;;5033052;28;20249;-74
2022/04/07 13:15:52;;;;;;;1999.90;999.90;;;;;;;;;;5033615;28;20226;-73
2022/04/07 13:18:37;;;;;;;1999.90;999.90;;;;;;;;;;5033410;28;20608;-74
2022/04/07 13:21:22;;;;;;;1999.90;999.90;;;;;;;;;;5033740;28;20727;-73
2022/04/07 13:24:07;;;;;;;1999.90;999.90;;;;;;;;;;5034204;28;20198;-73
2022/04/07 13:26:53;;;;;;;1999.90;999.90;;;;;;;;;;5034075;28;20211;-73
2022/04/07 13:29:38;;;;;;;1999.90;999.90;;;;;;;;;;5033019;28;20335;-75
2022/04/07 13:32:24;;;;;;;1999.90;999.90;;;;;;;;;;5033704;28;20225;-73
2022/04/07 13:35:09;;;;;;;1999.90;999.90;;;;;;;;;;5033257;28;20222;-74
2022/04/07 13:37:57;;;;;;;1999.90;999.90;;;;;;;;;;5033170;28;20222;-74
2022/04/07 13:40:42;;;;;;;1999.90;999.90;;;;;;;;;;5033838;28;20230;-73
2022/04/07 13:43:29;;;;;;;1999.90;999.90;;;;;;;;;;5033475;28;20588;-74
2022/04/07 13:46:14;;;;;;;1999.90;999.90;;;;;;;;;;5033706;28;20198;-71
2022/04/07 13:48:59;;;;;;;1999.90;999.90;;;;;;;;;;5032880;28;20759;-74
2022/04/07 13:51:44;;;;;;;1999.90;999.90;;;;;;;;;;5033619;28;20247;-74
2022/04/07 13:54:29;;;;;;;1999.90;999.90;;;;;;;;;;5032612;28;20430;-74
2022/04/07 13:57:14;;;;;;;1999.90;999.90;;;;;;;;;;5013692;28;20219;-74
2022/04/07 14:00:00;;;;;;;1999.90;999.90;;;;;;;;;;5012691;28;20371;-73
2022/04/07 14:02:45;;;;;;;1999.90;999.90;;;;;;;;;;5013579;28;20221;-73
2022/04/07 14:05:30;;;;;;;1999.90;999.90;;;;;;;;;;5022103;28;20203;-73
2022/04/07 14:08:16;;;;;;;1999.90;999.90;;;;;;;;;;5032070;28;20288;-74
2022/04/07 14:11:01;;;;;;;1999.90;999.90;;;;;;;;;;5033092;28;20223;-74
2022/04/07 14:13:46;;;;;;;1999.90;999.90;;;;;;;;;;5033186;28;20338;-73
2022/04/07 14:16:33;;;;;;;1999.90;999.90;;;;;;;;;;5032919;28;20702;-74
2022/04/07 14:19:19;;;;;;;1999.90;999.90;;;;;;;;;;5032294;28;20245;-73
2022/04/07 14:22:04;;;;;;;1999.90;999.90;;;;;;;;;;5033043;28;20270;-74
2022/04/07 14:24:49;;;;;;;1999.90;999.90;;;;;;;;;;5032649;28;20206;-73
2022/04/07 14:27:34;;;;;;;1999.90;999.90;;;;;;;;;;5032951;28;20572;-74
2022/04/07 14:30:19;;;;;;;1999.90;999.90;;;;;;;;;;5032911;28;20206;-72
2022/04/07 14:33:05;;;;;;;1999.90;999.90;;;;;;;;;;5032857;28;20354;-73
2022/04/07 14:35:51;;;;;;;1999.90;999.90;;;;;;;;;;5032601;28;20233;-73
2022/04/07 14:38:36;;;;;;;1999.90;999.90;;;;;;;;;;5031790;28;20580;-71
2022/04/07 14:41:21;;;;;;;1999.90;999.90;;;;;;;;;;5032301;28;20730;-74
2022/04/07 14:44:06;;;;;;;1999.90;999.90;;;;;;;;;;5032613;28;20557;-73
2022/04/07 14:46:51;;;;;;;1999.90;999.90;;;;;;;;;;5032605;28;20215;-72
2022/04/07 14:49:38;;;;;;;1999.90;999.90;;;;;;;;;;5031849;28;20210;-72
2022/04/07 14:52:23;;;;;;;1999.90;999.90;;;;;;;;;;5031995;28;20600;-73
2022/04/07 14:55:09;;;;;;;1999.90;999.90;;;;;;;;;;5031585;28;20221;-71
2022/04/07 14:57:55;;;;;;;1999.90;999.90;;;;;;;;;;5030966;28;20262;-74
2022/04/07 15:00:40;;;;;;;1999.90;999.90;;;;;;;;;;5031943;28;20281;-72
2022/04/07 15:03:25;;;;;;;1999.90;999.90;;;;;;;;;;5031476;28;20707;-72
2022/04/07 15:06:14;;;;;;;1999.90;999.90;;;;;;;;;;5012568;28;20634;-74
2022/04/07 15:09:00;;;;;;;1999.90;999.90;;;;;;;;;;5011359;28;20559;-72
2022/04/07 15:11:46;;;;;;;1999.90;999.90;;;;;;;;;;5012425;28;20223;-71
2022/04/07 15:14:38;;;;;;;1999.90;999.90;;;;;;;;;;5012102;28;20212;-72
2022/04/07 15:17:23;;;;;;;1999.90;999.90;;;;;;;;;;5027567;28;20209;-71
2022/04/07 15:20:08;;;;;;;1999.90;999.90;;;;;;;;;;5031304;28;20414;-72
2022/04/07 15:22:55;;;;;;;1999.90;999.90;;;;;;;;;;5032032;28;20210;-70
2022/04/07 15:25:40;;;;;;;1999.90;999.90;;;;;;;;;;5031889;28;20293;-73
2022/04/07 15:28:25;;;;;;;1999.90;999.90;;;;;;;;;;5031009;28;20696;-72
2022/04/07 15:31:10;;;;;;;1999.90;999.90;;;;;;;;;;5031539;28;20226;-71
2022/04/07 15:33:55;;;;;;;1999.90;999.90;;;;;;;;;;5031470;28;20206;-71
2022/04/07 15:36:40;;;;;;;1999.90;999.90;;;;;;;;;;5031500;28;20710;-71
2022/04/07 15:39:26;;;;;;;1999.90;999.90;;;;;;;;;;5031340;28;20202;-72
2022/04/07 15:42:11;;;;;;;1999.90;999.90;;;;;;;;;;5031802;28;20223;-72
2022/04/07 15:44:56;;;;;;;1999.90;999.90;;;;;;;;;;5032001;28;20283;-72
2022/04/07 15:47:42;;;;;;;1999.90;999.90;;;;;;;;;;5031347;28;20291;-73
2022/04/07 15:50:26;;;;;;;1999.90;999.90;;;;;;;;;;5030877;28;20206;-70
2022/04/07 15:53:13;;;;;;;1999.90;999.90;;;;;;;;;;5031513;28;20205;-72
2022/04/07 15:55:59;;;;;;;1999.90;999.90;;;;;;;;;;5031557;28;20225;-71
2022/04/07 15:58:44;;;;;;;1999.90;999.90;;;;;;;;;;5030927;28;20574;-71
2022/04/07 16:01:30;;;;;;;1999.90;999.90;;;;;;;;;;5031254;28;20600;-71
2022/04/07 16:04:15;;;;;;;1999.90;999.90;;;;;;;;;;5015864;28;20207;-71
2022/04/07 16:07:01;;;;;;;1999.90;999.90;;;;;;;;;;5029739;28;20205;-71
2022/04/07 16:09:46;;;;;;;1999.90;999.90;;;;;;;;;;5030429;28;20353;-70
2022/04/07 16:12:32;;;;;;;1999.90;999.90;;;;;;;;;;5030848;28;20233;-73
2022/04/07 16:15:17;;;;;;;1999.90;999.90;;;;;;;;;;5031387;28;20220;-72
2022/04/07 16:18:02;;;;;;;1999.90;999.90;;;;;;;;;;5031201;28;20261;-72
2022/04/07 16:20:47;;;;;;;1999.90;999.90;;;;;;;;;;5031230;28;20232;-72
2022/04/07 16:23:35;;;;;;;1999.90;999.90;;;;;;;;;;5031841;28;20210;-69
2022/04/07 16:26:20;;;;;;;1999.90;999.90;;;;;;;;;;5031957;28;20325;-71
2022/04/07 16:29:06;;;;;;;1999.90;999.90;;;;;;;;;;5030558;28;20206;-72
2022/04/07 16:31:51;;;;;;;1999.90;999.90;;;;;;;;;;5023614;28;20241;-73
2022/04/07 16:34:35;;;;;;;1999.90;999.90;;;;;;;;;;5015243;28;20206;-70
2022/04/07 16:37:21;;;;;;;1999.90;999.90;;;;;;;;;;5015226;28;20210;-73
2022/04/07 16:40:06;;;;;;;1999.90;999.90;;;;;;;;;;5015161;28;20284;-72
2022/04/07 16:42:51;;;;;;;1999.90;999.90;;;;;;;;;;5015721;28;20208;-69
2022/04/07 16:45:38;;;;;;;1999.90;999.90;;;;;;;;;;5015854;28;20214;-72
2022/04/07 16:48:22;;;;;;;1999.90;999.90;;;;;;;;;;5014223;28;20206;-72
2022/04/07 16:51:08;;;;;;;1999.90;999.90;;;;;;;;;;5013486;28;20507;-72
2022/04/07 16:53:54;;;;;;;1999.90;999.90;;;;;;;;;;5021352;28;20209;-72
2022/04/07 16:56:40;;;;;;;1999.90;999.90;;;;;;;;;;5034452;28;20237;-72
2022/04/07 16:59:25;;;;;;;1999.90;999.90;;;;;;;;;;5033811;28;20284;-71
2022/04/07 17:02:11;;;;;;;1999.90;999.90;;;;;;;;;;5034861;28;20242;-71
2022/04/07 17:04:56;;;;;;;1999.90;999.90;;;;;;;;;;5034770;28;20205;-73
2022/04/07 17:07:41;;;;;;;1999.90;999.90;;;;;;;;;;5034160;28;20210;-72
2022/04/07 17:10:26;;;;;;;1999.90;999.90;;;;;;;;;;5034065;28;20216;-71
2022/04/07 17:13:15;;;;;;;1999.90;999.90;;;;;;;;;;5034235;28;20211;-72
2022/04/07 17:16:01;;;;;;;1999.90;999.90;;;;;;;;;;5034209;28;20304;-71
2022/04/07 17:18:48;;;;;;;1999.90;999.90;;;;;;;;;;5032781;28;20211;-71
2022/04/07 17:21:33;;;;;;;1999.90;999.90;;;;;;;;;;5033258;28;20225;-71
2022/04/07 17:24:18;;;;;;;1999.90;999.90;;;;;;;;;;5030949;28;20205;-71
2022/04/07 17:27:03;;;;;;;1999.90;999.90;;;;;;;;;;5034157;28;20250;-70
2022/04/07 17:29:50;;;;;;;1999.90;999.90;;;;;;;;;;5033239;28;20783;-71
2022/04/07 17:32:35;;;;;;;1999.90;999.90;;;;;;;;;;5034165;28;20270;-71
2022/04/07 17:35:21;;;;;;;1999.90;999.90;;;;;;;;;;5034210;28;20220;-71
2022/04/07 17:38:06;;;;;;;1999.90;999.90;;;;;;;;;;5033045;28;20331;-71
2022/04/07 17:40:52;;;;;;;1999.90;999.90;;;;;;;;;;5032772;28;20224;-72
2022/04/07 17:43:37;;;;;;;1999.90;999.90;;;;;;;;;;5032227;28;20216;-72
2022/04/07 17:46:22;;;;;;;1999.90;999.90;;;;;;;;;;5033526;28;20348;-71
2022/04/07 17:49:07;;;;;;;1999.90;999.90;;;;;;;;;;5033131;28;20209;-72
2022/04/07 17:51:53;;;;;;;1999.90;999.90;;;;;;;;;;5020774;28;20439;-73
2022/04/07 17:54:38;;;;;;;1999.90;999.90;;;;;;;;;;5031016;28;20637;-73
2022/04/07 17:57:23;;;;;;;1999.90;999.90;;;;;;;;;;5033371;28;20232;-72
2022/04/07 18:00:10;;;;;;;1999.90;999.90;;;;;;;;;;5033058;28;20710;-72
2022/04/07 18:02:55;;;;;;;1999.90;999.90;;;;;;;;;;5013832;28;20221;-71
2022/04/07 18:05:39;;;;;;;1999.90;999.90;;;;;;;;;;5013881;28;20210;-72
2022/04/07 18:08:26;;;;;;;1999.90;999.90;;;;;;;;;;5013082;28;20209;-74
2022/04/07 18:11:10;;;;;;;1999.90;999.90;;;;;;;;;;5014259;28;20234;-72
2022/04/07 18:13:55;;;;;;;1999.90;999.90;;;;;;;;;;5031007;28;20213;-72
2022/04/07 18:16:40;;;;;;;1999.90;999.90;;;;;;;;;;5033209;28;20774;-72
2022/04/07 18:19:25;;;;;;;1999.90;999.90;;;;;;;;;;5031936;28;20422;-73
2022/04/07 18:22:10;;;;;;;1999.90;999.90;;;;;;;;;;5033173;28;20722;-72
2022/04/07 18:24:57;;;;;;;1999.90;999.90;;;;;;;;;;5028533;28;20201;-72
2022/04/07 18:27:43;;;;;;;1999.90;999.90;;;;;;;;;;5016846;28;20216;-70
2022/04/07 18:30:29;;;;;;;1999.90;999.90;;;;;;;;;;5013314;28;20212;-72
2022/04/07 18:33:14;;;;;;;1999.90;999.90;;;;;;;;;;5013087;28;20615;-71
2022/04/07 18:36:00;;;;;;;1999.90;999.90;;;;;;;;;;5013082;28;20249;-72
2022/04/07 18:38:45;;;;;;;1999.90;999.90;;;;;;;;;;5018223;28;20223;-72
2022/04/07 18:41:31;;;;;;;1999.90;999.90;;;;;;;;;;5014812;28;20230;-73
2022/04/07 18:44:17;;;;;;;1999.90;999.90;;;;;;;;;;5013130;28;20340;-72
2022/04/07 18:47:02;;;;;;;1999.90;999.90;;;;;;;;;;5013000;28;20240;-73
2022/04/07 18:49:46;;;;;;;1999.90;999.90;;;;;;;;;;5012208;28;20209;-72
2022/04/07 18:52:31;;;;;;;1999.90;999.90;;;;;;;;;;5028325;28;20768;-73
2022/04/07 18:55:17;;;;;;;1999.90;999.90;;;;;;;;;;5032255;28;20576;-72
2022/04/07 18:58:03;;;;;;;1999.90;999.90;;;;;;;;;;5031769;28;20205;-72
2022/04/07 19:00:48;;;;;;;1999.90;999.90;;;;;;;;;;5031783;28;20858;-73
2022/04/07 19:03:33;;;;;;;1999.90;999.90;;;;;;;;;;5032496;28;20580;-71
2022/04/07 19:06:18;;;;;;;1999.90;999.90;;;;;;;;;;5031872;28;20276;-73
2022/04/07 19:09:03;;;;;;;1999.90;999.90;;;;;;;;;;5028650;28;20217;-72
2022/04/07 19:11:48;;;;;;;1999.90;999.90;;;;;;;;;;5018705;28;20605;-72
2022/04/07 19:14:36;;;;;;;1999.90;999.90;;;;;;;;;;5015366;28;20226;-72
2022/04/07 19:17:21;;;;;;;1999.90;999.90;;;;;;;;;;5015891;28;20228;-72
2022/04/07 19:20:06;;;;;;;1999.90;999.90;;;;;;;;;;5023929;28;20800;-73
2022/04/07 19:22:51;;;;;;;1999.90;999.90;;;;;;;;;;5015617;28;20424;-72
2022/04/07 19:25:36;;;;;;;1999.90;999.90;;;;;;;;;;5025797;28;20209;-70
2022/04/07 19:28:21;;;;;;;1999.90;999.90;;;;;;;;;;5010900;28;20205;-72
2022/04/07 19:31:08;;;;;;;1999.90;999.90;;;;;;;;;;5016293;28;20236;-72
2022/04/07 19:33:53;;;;;;;1999.90;999.90;;;;;;;;;;5020017;28;20277;-72
2022/04/07 19:36:38;;;;;;;1999.90;999.90;;;;;;;;;;5029304;28;20226;-73
2022/04/07 19:39:22;;;;;;;1999.90;999.90;;;;;;;;;;5018891;28;20205;-72
2022/04/07 19:42:10;;;;;;;1999.90;999.90;;;;;;;;;;5014897;28;20728;-73
2022/04/07 19:44:55;;;;;;;1999.90;999.90;;;;;;;;;;5024630;28;20283;-72
2022/04/07 19:47:41;;;;;;;1999.90;999.90;;;;;;;;;;5016267;28;20220;-71
2022/04/07 19:50:26;;;;;;;1999.90;999.90;;;;;;;;;;5011144;28;20286;-71
2022/04/07 19:53:11;;;;;;;1999.90;999.90;;;;;;;;;;5025954;28;20212;-72
2022/04/07 19:55:57;;;;;;;1999.90;999.90;;;;;;;;;;5011376;28;20309;-69
2022/04/07 19:58:41;;;;;;;1999.90;999.90;;;;;;;;;;5019250;28;20208;-71
2022/04/07 20:01:26;;;;;;;1999.90;999.90;;;;;;;;;;5031537;28;20228;-69
2022/04/07 20:04:12;;;;;;;1999.90;999.90;;;;;;;;;;5032118;28;20585;-70
2022/04/07 20:06:58;;;;;;;1999.90;999.90;;;;;;;;;;5015934;28;20572;-71
2022/04/07 20:09:43;;;;;;;1999.90;999.90;;;;;;;;;;5015186;28;20213;-72
2022/04/07 20:12:28;;;;;;;1999.90;999.90;;;;;;;;;;5015891;28;20719;-72
2022/04/07 20:15:14;;;;;;;1999.90;999.90;;;;;;;;;;5020756;28;20208;-70
2022/04/07 20:17:59;;;;;;;1999.90;999.90;;;;;;;;;;5018169;28;20222;-70
2022/04/07 20:20:45;;;;;;;1999.90;999.90;;;;;;;;;;5033643;28;20294;-72
2022/04/07 20:23:30;;;;;;;1999.90;999.90;;;;;;;;;;5031188;28;20695;-69
2022/04/07 20:26:15;;;;;;;1999.90;999.90;;;;;;;;;;5034057;28;20263;-72
2022/04/07 20:29:00;;;;;;;1999.90;999.90;;;;;;;;;;5033958;28;20215;-72